createdAt,value
2023-02-02T00:01:20.818Z,3.14
2023-02-02T00:03:50.969Z,3.01
2023-02-02T00:06:23.252Z,2.99
2023-02-02T00:08:51.237Z,2.98
2023-02-02T00:11:19.512Z,3.01
2023-02-02T00:13:47.235Z,2.99
2023-02-02T00:16:31.071Z,2.96
2023-02-02T00:19:01.215Z,2.98
2023-02-02T00:21:28.952Z,3.02
2023-02-02T00:23:56.668Z,3.07
2023-02-02T00:26:24.758Z,3.12
2023-02-02T00:28:52.717Z,3.15
2023-02-02T00:31:20.560Z,3.18
2023-02-02T00:33:49.973Z,3.17
2023-02-02T00:36:19.290Z,3.12
2023-02-02T00:38:48.272Z,3.14
2023-02-02T00:41:16.424Z,3.14
2023-02-02T00:43:44.501Z,3.15
2023-02-02T00:46:18.762Z,3.20
2023-02-02T00:48:47.072Z,3.23
2023-02-02T00:51:14.745Z,3.25
2023-02-02T00:53:42.414Z,3.22
2023-02-02T00:56:10.205Z,3.23
2023-02-02T00:58:37.936Z,3.23
2023-02-02T01:01:05.709Z,3.27
2023-02-02T01:03:33.542Z,3.28
2023-02-02T01:06:01.263Z,3.26
2023-02-02T01:08:29.261Z,3.24
2023-02-02T01:10:59.725Z,3.23
2023-02-02T01:13:27.466Z,3.24
2023-02-02T01:15:57.334Z,3.27
2023-02-02T01:18:27.806Z,3.28
2023-02-02T01:21:02.434Z,3.32
2023-02-02T01:23:30.808Z,3.27
2023-02-02T01:26:00.567Z,3.27
2023-02-02T01:28:28.868Z,3.28
2023-02-02T01:30:57.515Z,3.27
2023-02-02T01:33:25.534Z,3.31
2023-02-02T01:35:55.439Z,3.28
2023-02-02T01:38:24.795Z,3.28
2023-02-02T01:40:55.427Z,3.25
2023-02-02T01:43:52.694Z,3.25
2023-02-02T01:46:34.839Z,3.27
2023-02-02T01:49:13.272Z,3.26
2023-02-02T01:51:46.504Z,3.23
2023-02-02T01:54:19.015Z,3.24
2023-02-02T01:56:59.371Z,3.22
2023-02-02T01:59:28.504Z,3.25
2023-02-02T02:01:56.439Z,3.27
2023-02-02T02:04:25.266Z,3.26
2023-02-02T02:06:53.725Z,3.28
2023-02-02T02:09:21.721Z,3.31
2023-02-02T02:11:49.459Z,3.33
2023-02-02T02:14:36.015Z,3.35
2023-02-02T02:17:37.930Z,3.36
2023-02-02T02:20:53.264Z,3.29
2023-02-02T02:24:02.819Z,3.28
2023-02-02T02:26:39.776Z,3.32
2023-02-02T02:29:36.009Z,3.29
2023-02-02T02:32:23.315Z,3.34
2023-02-02T02:35:21.866Z,3.36
2023-02-02T02:38:12.558Z,3.39
2023-02-02T02:40:46.653Z,3.45
2023-02-02T02:43:33.414Z,3.53
2023-02-02T02:46:02.266Z,3.56
2023-02-02T02:48:30.006Z,3.57
2023-02-02T02:51:38.525Z,3.59
2023-02-02T02:54:06.947Z,3.59
2023-02-02T02:56:46.979Z,3.61
2023-02-02T02:59:36.188Z,3.59
2023-02-02T03:02:29.104Z,3.57
2023-02-02T03:05:28.150Z,3.57
2023-02-02T03:08:24.821Z,3.54
2023-02-02T03:10:52.844Z,3.53
2023-02-02T03:13:20.522Z,3.53
2023-02-02T03:15:48.263Z,3.55
2023-02-02T03:18:17.812Z,3.58
2023-02-02T03:20:46.476Z,3.59
2023-02-02T03:23:14.481Z,3.53
2023-02-02T03:25:42.257Z,3.56
2023-02-02T03:28:10.059Z,3.57
2023-02-02T03:35:35.191Z,3.55
2023-02-02T03:38:03.810Z,3.54
2023-02-02T03:40:31.461Z,3.48
2023-02-02T03:42:59.115Z,3.46
2023-02-02T03:45:28.483Z,3.48
2023-02-02T03:47:56.191Z,3.48
2023-02-02T03:50:25.877Z,3.49
2023-02-02T03:52:54.025Z,3.51
2023-02-02T03:55:22.083Z,3.53
2023-02-02T03:57:50.019Z,3.50
2023-02-02T04:00:18.248Z,3.54
2023-02-02T04:02:45.969Z,3.57
2023-02-02T04:05:13.694Z,3.61
2023-02-02T04:07:41.464Z,3.61
2023-02-02T04:10:10.063Z,3.59
2023-02-02T04:12:37.785Z,3.58
2023-02-02T04:15:06.422Z,3.61
2023-02-02T04:17:35.332Z,3.59
2023-02-02T04:20:04.686Z,3.63
2023-02-02T04:22:33.475Z,3.63
2023-02-02T04:25:01.270Z,3.64
2023-02-02T04:27:32.627Z,3.61
2023-02-02T04:30:00.298Z,3.65
2023-02-02T04:32:29.252Z,3.68
2023-02-02T04:34:56.945Z,3.68
2023-02-02T04:37:24.622Z,3.71
2023-02-02T04:39:53.825Z,3.72
2023-02-02T04:42:21.607Z,3.70
2023-02-02T04:44:49.661Z,3.74
2023-02-02T04:47:17.572Z,3.74
2023-02-02T04:49:45.249Z,3.76
2023-02-02T04:52:13.068Z,3.75
2023-02-02T04:54:40.748Z,3.73
2023-02-02T04:57:08.686Z,3.74
2023-02-02T04:59:36.442Z,3.75
2023-02-02T05:02:04.547Z,3.79
2023-02-02T05:04:32.409Z,3.82
2023-02-02T05:07:00.323Z,3.82
2023-02-02T05:09:28.177Z,3.84
2023-02-02T05:11:55.889Z,3.79
2023-02-02T05:14:23.612Z,3.77
2023-02-02T05:16:51.404Z,3.81
2023-02-02T05:19:19.273Z,3.80
2023-02-02T05:21:51.014Z,3.79
2023-02-02T05:24:19.332Z,3.78
2023-02-02T05:26:47.316Z,3.79
2023-02-02T05:29:15.143Z,3.80
2023-02-02T05:31:42.844Z,3.82
2023-02-02T05:34:11.612Z,3.83
2023-02-02T05:36:39.355Z,3.81
2023-02-02T05:39:07.179Z,3.82
2023-02-02T05:41:34.906Z,3.80
2023-02-02T05:44:03.332Z,3.81
2023-02-02T05:46:31.132Z,3.83
2023-02-02T05:48:59.356Z,3.85
2023-02-02T05:51:32.444Z,3.87
2023-02-02T05:54:01.117Z,3.86
2023-02-02T05:56:28.887Z,3.85
2023-02-02T05:58:56.611Z,3.84
2023-02-02T06:01:24.489Z,3.84
2023-02-02T06:03:52.246Z,3.85
2023-02-02T06:06:20.237Z,3.83
2023-02-02T06:08:48.063Z,3.81
2023-02-02T06:11:17.747Z,3.77
2023-02-02T06:13:46.102Z,3.70
2023-02-02T06:16:14.156Z,3.64
2023-02-02T06:18:41.939Z,3.58
2023-02-02T06:21:10.221Z,3.54
2023-02-02T06:23:38.301Z,3.46
2023-02-02T06:26:08.274Z,3.39
2023-02-02T06:28:36.134Z,3.35
2023-02-02T06:31:05.958Z,3.33
2023-02-02T06:33:33.817Z,3.28
2023-02-02T06:36:06.311Z,3.24
2023-02-02T06:38:34.096Z,3.26
2023-02-02T06:41:02.760Z,3.26
2023-02-02T06:43:31.045Z,3.24
2023-02-02T06:45:58.846Z,3.25
2023-02-02T06:48:27.298Z,3.22
2023-02-02T06:50:59.256Z,3.21
2023-02-02T06:53:27.331Z,3.21
2023-02-02T06:55:56.187Z,3.23
2023-02-02T06:58:23.990Z,3.24
2023-02-02T07:00:52.091Z,3.27
2023-02-02T07:03:21.467Z,3.30
2023-02-02T07:05:49.657Z,3.35
2023-02-02T07:08:17.600Z,3.37
2023-02-02T07:11:14.513Z,3.42
2023-02-02T07:13:33.035Z,3.44
2023-02-02T07:16:00.853Z,3.47
2023-02-02T07:18:28.618Z,3.51
2023-02-02T07:21:00.445Z,3.52
2023-02-02T07:23:29.107Z,3.59
2023-02-02T07:26:01.773Z,3.65
2023-02-02T07:28:29.555Z,3.74
2023-02-02T07:30:59.179Z,3.78
2023-02-02T07:33:27.266Z,3.79
2023-02-02T07:35:55.069Z,3.76
2023-02-02T07:38:22.756Z,3.82
2023-02-02T07:40:50.447Z,3.90
2023-02-02T07:43:19.404Z,3.96
2023-02-02T07:45:47.058Z,4.00
2023-02-02T07:48:14.776Z,4.06
2023-02-02T07:50:42.481Z,4.09
2023-02-02T07:53:10.241Z,4.13
2023-02-02T07:55:38.009Z,4.19
2023-02-02T07:58:07.754Z,4.21
2023-02-02T08:00:35.446Z,4.24
2023-02-02T08:03:03.303Z,4.26
2023-02-02T08:05:32.095Z,4.34
2023-02-02T08:07:59.741Z,4.36
2023-02-02T08:10:28.032Z,4.38
2023-02-02T08:12:55.683Z,4.40
2023-02-02T08:15:23.484Z,4.41
2023-02-02T08:17:52.045Z,4.43
2023-02-02T08:20:19.755Z,4.44
2023-02-02T08:22:47.486Z,4.48
2023-02-02T08:25:15.310Z,4.54
2023-02-02T08:27:42.960Z,4.59
2023-02-02T08:30:11.582Z,4.64
2023-02-02T08:32:40.479Z,4.72
2023-02-02T08:35:08.369Z,4.81
2023-02-02T08:37:36.110Z,4.95
2023-02-02T08:40:04.176Z,5.16
2023-02-02T08:42:31.849Z,5.26
2023-02-02T08:46:00.025Z,5.35
2023-02-02T08:47:47.305Z,5.30
2023-02-02T08:50:16.301Z,5.31
2023-02-02T08:52:44.535Z,5.27
2023-02-02T08:55:12.190Z,5.27
2023-02-02T08:57:39.961Z,5.29
2023-02-02T14:02:41.149Z,4.04
2023-02-02T14:05:22.431Z,4.03
2023-02-02T14:07:55.882Z,4.17
2023-02-02T14:10:27.056Z,4.58
2023-02-02T14:12:55.869Z,5.68
2023-02-02T14:15:43.930Z,6.68
2023-02-02T14:18:11.698Z,7.29
2023-02-02T14:20:48.154Z,8.10
2023-02-02T14:23:53.604Z,8.27
2023-02-02T14:26:43.594Z,8.99
2023-02-02T14:29:31.319Z,8.34
2023-02-02T14:32:24.217Z,8.05
2023-02-02T14:34:56.332Z,7.60
2023-02-02T14:37:23.995Z,7.12
2023-02-02T14:40:06.993Z,6.82
2023-02-02T14:43:12.951Z,6.55
2023-02-02T14:45:42.460Z,6.21
2023-02-02T14:48:16.148Z,6.06
2023-02-02T14:50:56.574Z,5.94
2023-02-02T14:53:36.529Z,5.70
2023-02-02T14:56:04.343Z,5.48
2023-02-02T14:58:35.123Z,5.33
2023-02-02T15:01:13.476Z,5.14
2023-02-02T15:03:47.254Z,5.00
2023-02-02T15:06:33.912Z,4.87
2023-02-02T15:09:19.991Z,4.78
2023-02-02T15:12:02.975Z,4.67
2023-02-02T15:14:36.215Z,4.61
2023-02-02T15:17:22.554Z,4.59
2023-02-02T15:19:56.238Z,4.54
2023-02-02T15:22:37.724Z,4.42
2023-02-02T15:25:14.105Z,4.30
2023-02-02T15:27:56.186Z,4.19
2023-02-02T15:30:27.509Z,4.12
2023-02-02T15:32:55.966Z,3.99
2023-02-02T15:35:28.493Z,3.93
2023-02-02T15:38:01.623Z,3.84
2023-02-02T15:40:30.593Z,3.78
2023-02-02T15:43:06.294Z,3.75
2023-02-02T15:45:43.690Z,3.67
2023-02-02T15:48:18.746Z,3.55
2023-02-02T15:50:48.217Z,3.49
2023-02-02T15:53:22.273Z,3.44
2023-02-02T15:55:50.268Z,3.36
2023-02-02T15:58:33.082Z,3.27
2023-02-02T16:01:06.812Z,3.20
2023-02-02T16:03:46.945Z,3.10
2023-02-02T16:06:14.712Z,3.02
2023-02-02T16:08:42.557Z,2.91
2023-02-02T16:11:18.686Z,2.82
2023-02-02T16:14:07.375Z,2.81
2023-02-02T16:16:37.735Z,2.81
2023-02-02T16:19:08.925Z,2.81
2023-02-02T16:21:41.221Z,2.84
2023-02-02T16:24:12.050Z,2.83
2023-02-02T16:26:39.887Z,2.80
2023-02-02T16:29:17.123Z,2.76
2023-02-02T16:31:46.958Z,2.70
2023-02-02T16:34:44.957Z,2.63
2023-02-02T16:37:14.149Z,2.53
2023-02-02T16:39:42.152Z,2.48
2023-02-02T16:42:35.076Z,2.45
2023-02-02T16:45:02.819Z,2.43
2023-02-02T16:47:33.107Z,2.41
2023-02-02T16:50:09.782Z,2.40
2023-02-02T16:52:57.897Z,2.38
2023-02-02T16:55:36.424Z,2.34
2023-02-02T16:58:21.302Z,2.35
2023-02-02T17:01:13.670Z,2.34
2023-02-02T17:03:50.114Z,2.37
2023-02-02T17:06:19.142Z,2.34
2023-02-02T17:08:47.792Z,2.30
2023-02-02T17:11:26.577Z,2.29
2023-02-02T17:13:54.829Z,2.31
2023-02-02T17:16:24.236Z,2.29
2023-02-02T17:18:52.047Z,2.31
2023-02-02T17:21:21.950Z,2.32
2023-02-02T17:23:51.759Z,2.36
2023-02-02T17:26:19.839Z,2.39
2023-02-02T17:28:47.788Z,2.42
2023-02-02T17:31:16.540Z,2.43
2023-02-02T17:33:47.156Z,2.48
2023-02-02T17:36:15.105Z,2.55
2023-02-02T17:38:43.163Z,2.60
2023-02-02T17:41:12.533Z,2.58
2023-02-02T17:43:42.694Z,2.55
2023-02-02T17:46:13.277Z,2.50
2023-02-02T17:48:41.095Z,2.47
2023-02-02T17:51:17.977Z,2.49
2023-02-02T17:53:46.394Z,2.49
2023-02-02T17:56:14.149Z,2.55
2023-02-02T17:58:42.173Z,2.58
2023-02-02T18:01:11.940Z,2.52
2023-02-02T18:03:41.065Z,2.52
2023-02-02T18:06:10.097Z,2.53
2023-02-02T18:08:37.876Z,2.52
2023-02-02T18:11:05.874Z,2.52
2023-02-02T18:13:36.290Z,2.56
2023-02-02T18:16:06.030Z,2.54
2023-02-02T18:18:33.963Z,2.52
2023-02-02T18:21:02.471Z,2.52
2023-02-02T18:23:30.229Z,2.51
2023-02-02T18:26:09.618Z,2.51
2023-02-02T18:28:38.520Z,2.47
2023-02-02T18:31:14.021Z,2.46
2023-02-02T18:33:42.550Z,2.43
2023-02-02T18:36:16.069Z,2.43
2023-02-02T18:38:47.175Z,2.44
2023-02-02T18:41:16.036Z,2.48
2023-02-02T18:43:45.509Z,2.44
2023-02-02T18:46:15.122Z,2.40
2023-02-02T18:48:43.200Z,2.38
2023-02-02T18:51:16.142Z,2.38
2023-02-02T18:53:45.178Z,2.39
2023-02-02T18:56:14.763Z,2.39
2023-02-02T18:58:42.522Z,2.40
2023-02-02T19:01:16.236Z,2.38
2023-02-02T19:03:48.409Z,2.38
2023-02-02T19:06:35.679Z,2.39
2023-02-02T19:09:04.312Z,2.44
2023-02-02T19:11:38.886Z,2.51
2023-02-02T19:14:13.067Z,2.56
2023-02-02T19:16:41.147Z,2.65
2023-02-02T19:19:20.397Z,2.71
2023-02-02T19:21:48.262Z,2.75
2023-02-02T19:24:15.957Z,2.79
2023-02-02T19:26:48.672Z,2.83
2023-02-02T19:29:23.347Z,2.85
2023-02-02T19:32:02.935Z,2.84
2023-02-02T19:34:33.031Z,2.79
2023-02-02T19:37:22.813Z,2.75
2023-02-02T19:40:13.500Z,2.75
2023-02-02T19:42:50.199Z,2.76
2023-02-02T19:45:30.086Z,2.79
2023-02-02T19:47:59.784Z,2.74
2023-02-02T19:50:32.743Z,2.69
2023-02-02T19:53:02.321Z,2.65
2023-02-02T19:55:35.286Z,2.59
2023-02-02T19:58:21.465Z,2.53
2023-02-02T20:00:50.647Z,2.49
2023-02-02T20:03:36.300Z,2.41
2023-02-02T20:06:04.663Z,2.40
2023-02-02T20:08:39.903Z,2.36
2023-02-02T20:11:23.633Z,2.33
2023-02-02T20:13:51.952Z,2.29
2023-02-02T20:16:22.013Z,2.22
2023-02-02T20:18:54.559Z,2.15
2023-02-02T20:21:36.927Z,2.10
2023-02-02T20:24:14.940Z,2.09
2023-02-02T20:26:42.914Z,1.97
2023-02-02T20:29:16.547Z,1.86
2023-02-02T20:31:45.705Z,1.81
2023-02-02T20:34:24.263Z,1.79
2023-02-02T20:36:55.041Z,1.78
2023-02-02T20:39:28.088Z,1.77
2023-02-02T20:41:57.240Z,1.72
2023-02-02T20:44:26.892Z,1.72
2023-02-02T20:46:55.987Z,1.72
2023-02-02T20:49:25.654Z,1.74
2023-02-02T20:51:58.082Z,1.79
2023-02-02T20:54:26.376Z,1.83
2023-02-02T20:56:54.471Z,1.83
2023-02-02T20:59:22.379Z,1.81
2023-02-02T21:01:50.535Z,1.75
2023-02-02T21:04:19.402Z,1.66
2023-02-02T21:06:48.796Z,1.62
2023-02-02T21:09:16.922Z,1.65
2023-02-02T21:11:44.617Z,1.61
2023-02-02T21:14:12.406Z,1.53
2023-02-02T21:16:40.127Z,1.51
2023-02-02T21:19:07.944Z,1.51
2023-02-02T21:21:36.040Z,1.52
2023-02-02T21:24:04.312Z,1.48
2023-02-02T21:26:31.992Z,1.35
2023-02-02T21:28:59.702Z,1.27
2023-02-02T21:31:27.562Z,1.26
2023-02-02T21:33:55.512Z,1.31
2023-02-02T21:36:29.764Z,1.37
2023-02-02T21:39:12.304Z,1.41
2023-02-02T21:41:40.023Z,1.41
2023-02-02T21:44:22.344Z,1.42
2023-02-02T21:46:51.631Z,1.43
2023-02-02T21:49:24.817Z,1.44
2023-02-02T21:51:56.072Z,1.46
2023-02-02T21:54:24.870Z,1.42
2023-02-02T21:56:53.116Z,1.40
2023-02-02T21:59:23.241Z,1.41
2023-02-02T22:01:52.440Z,1.43
2023-02-02T22:04:31.345Z,1.45
2023-02-02T22:07:00.555Z,1.52
2023-02-02T22:09:37.516Z,1.53
2023-02-02T22:12:22.561Z,1.54
2023-02-02T22:14:52.543Z,1.55
2023-02-02T22:17:27.764Z,1.54
2023-02-02T22:20:00.906Z,1.50
2023-02-02T22:22:35.940Z,1.49
2023-02-02T22:25:17.778Z,1.49
2023-02-02T22:27:52.576Z,1.49
2023-02-02T22:30:26.090Z,1.48
2023-02-02T22:32:54.893Z,1.45
2023-02-02T22:35:22.728Z,1.42
2023-02-02T22:37:51.417Z,1.40
2023-02-02T22:40:22.441Z,1.34
2023-02-02T22:42:54.803Z,1.25
2023-02-02T22:45:22.500Z,1.21
2023-02-02T22:47:50.581Z,1.17
2023-02-02T22:50:20.641Z,1.15
2023-02-02T22:52:48.498Z,1.09
2023-02-02T22:55:17.314Z,1.07
2023-02-02T22:57:45.237Z,1.08
2023-02-02T23:00:18.312Z,1.08
2023-02-02T23:02:46.268Z,1.08
2023-02-02T23:05:15.428Z,1.06
2023-02-02T23:07:46.598Z,1.04
2023-02-02T23:10:17.101Z,1.02
2023-02-02T23:12:45.503Z,0.98
2023-02-02T23:15:13.816Z,0.90
2023-02-02T23:17:41.642Z,0.85
2023-02-02T23:20:12.463Z,0.83
2023-02-02T23:22:40.156Z,0.84
2023-02-02T23:25:08.562Z,0.83
2023-02-02T23:27:36.507Z,0.81
2023-02-02T23:30:05.870Z,0.81
2023-02-02T23:32:34.305Z,0.84
2023-02-02T23:35:02.137Z,0.87
2023-02-02T23:37:29.808Z,0.93
2023-02-02T23:39:57.526Z,0.97
2023-02-02T23:42:25.800Z,1.03
2023-02-02T23:44:53.511Z,1.06
2023-02-02T23:47:21.295Z,1.09
2023-02-02T23:49:48.999Z,1.13
2023-02-02T23:52:17.113Z,1.15
2023-02-02T23:54:44.841Z,1.13
2023-02-02T23:57:12.532Z,1.04
2023-02-02T23:59:40.343Z,0.95
